sensor_id;sensor_type;location;lat;lon;timestamp;P1;durP1;ratioP1;P2;durP2;ratioP2
76459;SDS011;65299;46.084;18.762;2023-04-16T00:00:57;26.73;;;14.03;;
76459;SDS011;65299;46.084;18.762;2023-04-16T00:03:57;22.17;;;12.60;;
76459;SDS011;65299;46.084;18.762;2023-04-16T00:06:58;23.23;;;13.73;;
76459;SDS011;65299;46.084;18.762;2023-04-16T00:09:58;24.47;;;14.17;;
76459;SDS011;65299;46.084;18.762;2023-04-16T00:12:59;29.53;;;16.40;;
76459;SDS011;65299;46.084;18.762;2023-04-16T00:15:59;32.30;;;17.35;;
76459;SDS011;65299;46.084;18.762;2023-04-16T00:19:00;32.10;;;16.77;;
76459;SDS011;65299;46.084;18.762;2023-04-16T00:22:00;28.87;;;17.47;;
76459;SDS011;65299;46.084;18.762;2023-04-16T00:25:01;31.67;;;17.97;;
76459;SDS011;65299;46.084;18.762;2023-04-16T00:28:01;32.53;;;18.05;;
76459;SDS011;65299;46.084;18.762;2023-04-16T00:31:01;23.80;;;13.57;;
76459;SDS011;65299;46.084;18.762;2023-04-16T00:34:02;21.87;;;13.77;;
76459;SDS011;65299;46.084;18.762;2023-04-16T00:37:03;21.90;;;12.27;;
76459;SDS011;65299;46.084;18.762;2023-04-16T00:40:03;20.90;;;10.83;;
76459;SDS011;65299;46.084;18.762;2023-04-16T00:43:04;10.95;;;6.72;;
76459;SDS011;65299;46.084;18.762;2023-04-16T00:46:05;13.60;;;7.30;;
76459;SDS011;65299;46.084;18.762;2023-04-16T00:49:06;11.35;;;6.82;;
76459;SDS011;65299;46.084;18.762;2023-04-16T00:52:06;13.93;;;6.15;;
76459;SDS011;65299;46.084;18.762;2023-04-16T00:55:07;18.40;;;7.57;;
76459;SDS011;65299;46.084;18.762;2023-04-16T00:58:12;23.95;;;9.05;;
76459;SDS011;65299;46.084;18.762;2023-04-16T01:01:12;25.97;;;10.40;;
76459;SDS011;65299;46.084;18.762;2023-04-16T01:04:13;15.83;;;7.47;;
76459;SDS011;65299;46.084;18.762;2023-04-16T01:07:14;14.83;;;6.63;;
76459;SDS011;65299;46.084;18.762;2023-04-16T01:10:14;15.20;;;6.38;;
76459;SDS011;65299;46.084;18.762;2023-04-16T01:13:15;12.37;;;5.57;;
76459;SDS011;65299;46.084;18.762;2023-04-16T01:16:15;12.60;;;4.07;;
76459;SDS011;65299;46.084;18.762;2023-04-16T01:19:15;4.73;;;3.00;;
76459;SDS011;65299;46.084;18.762;2023-04-16T01:22:16;5.13;;;3.07;;
76459;SDS011;65299;46.084;18.762;2023-04-16T01:25:16;10.75;;;4.63;;
76459;SDS011;65299;46.084;18.762;2023-04-16T01:28:17;8.87;;;4.47;;
76459;SDS011;65299;46.084;18.762;2023-04-16T01:31:17;8.17;;;3.50;;
76459;SDS011;65299;46.084;18.762;2023-04-16T01:34:18;4.23;;;2.10;;
76459;SDS011;65299;46.084;18.762;2023-04-16T01:37:18;2.47;;;1.35;;
76459;SDS011;65299;46.084;18.762;2023-04-16T01:40:18;2.33;;;1.20;;
76459;SDS011;65299;46.084;18.762;2023-04-16T01:43:19;1.97;;;1.27;;
76459;SDS011;65299;46.084;18.762;2023-04-16T01:46:22;5.00;;;1.50;;
76459;SDS011;65299;46.084;18.762;2023-04-16T01:49:26;4.70;;;2.05;;
76459;SDS011;65299;46.084;18.762;2023-04-16T01:52:28;5.22;;;2.30;;
76459;SDS011;65299;46.084;18.762;2023-04-16T01:55:28;2.87;;;2.43;;
76459;SDS011;65299;46.084;18.762;2023-04-16T01:58:30;4.20;;;2.88;;
76459;SDS011;65299;46.084;18.762;2023-04-16T02:01:31;4.33;;;2.30;;
76459;SDS011;65299;46.084;18.762;2023-04-16T02:04:31;3.47;;;1.92;;
76459;SDS011;65299;46.084;18.762;2023-04-16T02:07:32;2.47;;;1.63;;
76459;SDS011;65299;46.084;18.762;2023-04-16T02:10:32;3.40;;;1.83;;
76459;SDS011;65299;46.084;18.762;2023-04-16T02:13:33;3.77;;;1.90;;
76459;SDS011;65299;46.084;18.762;2023-04-16T02:16:33;5.40;;;2.30;;
76459;SDS011;65299;46.084;18.762;2023-04-16T02:19:33;4.93;;;2.70;;
76459;SDS011;65299;46.084;18.762;2023-04-16T02:22:34;4.28;;;2.80;;
76459;SDS011;65299;46.084;18.762;2023-04-16T02:25:38;6.53;;;2.90;;
76459;SDS011;65299;46.084;18.762;2023-04-16T02:28:40;5.28;;;3.13;;
76459;SDS011;65299;46.084;18.762;2023-04-16T02:31:40;4.47;;;2.70;;
76459;SDS011;65299;46.084;18.762;2023-04-16T02:34:41;4.67;;;3.20;;
76459;SDS011;65299;46.084;18.762;2023-04-16T02:37:42;4.57;;;2.85;;
76459;SDS011;65299;46.084;18.762;2023-04-16T02:40:42;3.47;;;2.57;;
76459;SDS011;65299;46.084;18.762;2023-04-16T02:43:43;5.95;;;2.40;;
76459;SDS011;65299;46.084;18.762;2023-04-16T02:46:43;4.00;;;3.03;;
76459;SDS011;65299;46.084;18.762;2023-04-16T02:49:43;4.40;;;2.47;;
76459;SDS011;65299;46.084;18.762;2023-04-16T02:52:44;5.30;;;3.10;;
76459;SDS011;65299;46.084;18.762;2023-04-16T02:55:51;3.55;;;1.75;;
76459;SDS011;65299;46.084;18.762;2023-04-16T02:58:52;4.25;;;2.47;;
76459;SDS011;65299;46.084;18.762;2023-04-16T03:01:52;4.53;;;2.73;;
76459;SDS011;65299;46.084;18.762;2023-04-16T03:04:53;5.30;;;2.47;;
76459;SDS011;65299;46.084;18.762;2023-04-16T03:07:53;3.60;;;2.43;;
76459;SDS011;65299;46.084;18.762;2023-04-16T03:10:55;3.90;;;1.95;;
76459;SDS011;65299;46.084;18.762;2023-04-16T03:13:56;3.77;;;2.20;;
76459;SDS011;65299;46.084;18.762;2023-04-16T03:16:56;3.43;;;2.10;;
76459;SDS011;65299;46.084;18.762;2023-04-16T03:19:57;5.20;;;2.53;;
76459;SDS011;65299;46.084;18.762;2023-04-16T03:22:58;3.83;;;1.97;;
76459;SDS011;65299;46.084;18.762;2023-04-16T03:25:58;3.73;;;2.10;;
76459;SDS011;65299;46.084;18.762;2023-04-16T03:28:59;5.07;;;2.17;;
76459;SDS011;65299;46.084;18.762;2023-04-16T03:32:02;4.63;;;2.25;;
76459;SDS011;65299;46.084;18.762;2023-04-16T03:35:03;4.03;;;2.30;;
76459;SDS011;65299;46.084;18.762;2023-04-16T03:38:06;4.40;;;2.20;;
76459;SDS011;65299;46.084;18.762;2023-04-16T03:41:07;3.63;;;2.33;;
76459;SDS011;65299;46.084;18.762;2023-04-16T03:44:07;4.40;;;2.33;;
76459;SDS011;65299;46.084;18.762;2023-04-16T03:47:08;4.40;;;2.17;;
76459;SDS011;65299;46.084;18.762;2023-04-16T03:50:08;3.95;;;2.20;;
76459;SDS011;65299;46.084;18.762;2023-04-16T03:53:10;4.13;;;2.17;;
76459;SDS011;65299;46.084;18.762;2023-04-16T03:56:10;3.35;;;2.03;;
76459;SDS011;65299;46.084;18.762;2023-04-16T03:59:11;3.47;;;2.03;;
76459;SDS011;65299;46.084;18.762;2023-04-16T04:02:11;3.63;;;2.20;;
76459;SDS011;65299;46.084;18.762;2023-04-16T04:05:12;7.00;;;1.70;;
76459;SDS011;65299;46.084;18.762;2023-04-16T04:08:12;3.23;;;1.90;;
76459;SDS011;65299;46.084;18.762;2023-04-16T04:11:12;5.00;;;2.38;;
76459;SDS011;65299;46.084;18.762;2023-04-16T04:14:13;5.60;;;2.33;;
76459;SDS011;65299;46.084;18.762;2023-04-16T04:17:13;5.20;;;2.27;;
76459;SDS011;65299;46.084;18.762;2023-04-16T04:20:14;3.63;;;2.10;;
76459;SDS011;65299;46.084;18.762;2023-04-16T04:23:15;4.13;;;1.70;;
76459;SDS011;65299;46.084;18.762;2023-04-16T04:26:15;4.38;;;1.90;;
76459;SDS011;65299;46.084;18.762;2023-04-16T04:29:16;4.83;;;1.57;;
76459;SDS011;65299;46.084;18.762;2023-04-16T04:32:16;6.07;;;1.77;;
76459;SDS011;65299;46.084;18.762;2023-04-16T04:35:16;6.60;;;2.00;;
76459;SDS011;65299;46.084;18.762;2023-04-16T04:38:17;4.88;;;1.95;;
76459;SDS011;65299;46.084;18.762;2023-04-16T04:41:19;4.83;;;1.77;;
76459;SDS011;65299;46.084;18.762;2023-04-16T04:44:20;3.75;;;2.25;;
76459;SDS011;65299;46.084;18.762;2023-04-16T04:47:21;4.22;;;1.85;;
76459;SDS011;65299;46.084;18.762;2023-04-16T04:50:21;3.53;;;1.67;;
76459;SDS011;65299;46.084;18.762;2023-04-16T04:53:22;5.33;;;2.00;;
76459;SDS011;65299;46.084;18.762;2023-04-16T04:56:22;3.73;;;1.83;;
76459;SDS011;65299;46.084;18.762;2023-04-16T04:59:23;5.83;;;2.10;;
76459;SDS011;65299;46.084;18.762;2023-04-16T05:02:24;4.32;;;2.00;;
76459;SDS011;65299;46.084;18.762;2023-04-16T05:05:24;3.70;;;2.00;;
76459;SDS011;65299;46.084;18.762;2023-04-16T05:08:24;3.25;;;1.73;;
76459;SDS011;65299;46.084;18.762;2023-04-16T05:11:25;5.13;;;2.73;;
76459;SDS011;65299;46.084;18.762;2023-04-16T05:14:26;7.95;;;2.60;;
76459;SDS011;65299;46.084;18.762;2023-04-16T05:17:26;5.17;;;2.60;;
76459;SDS011;65299;46.084;18.762;2023-04-16T05:20:26;3.73;;;1.83;;
76459;SDS011;65299;46.084;18.762;2023-04-16T05:23:27;6.43;;;2.70;;
76459;SDS011;65299;46.084;18.762;2023-04-16T05:26:27;5.33;;;2.33;;
76459;SDS011;65299;46.084;18.762;2023-04-16T05:29:27;4.57;;;2.50;;
76459;SDS011;65299;46.084;18.762;2023-04-16T05:32:28;5.40;;;2.30;;
76459;SDS011;65299;46.084;18.762;2023-04-16T05:35:28;5.53;;;2.77;;
76459;SDS011;65299;46.084;18.762;2023-04-16T05:38:29;3.93;;;2.37;;
76459;SDS011;65299;46.084;18.762;2023-04-16T05:41:29;6.13;;;2.47;;
76459;SDS011;65299;46.084;18.762;2023-04-16T05:44:29;4.13;;;2.63;;
76459;SDS011;65299;46.084;18.762;2023-04-16T05:47:30;5.83;;;3.17;;
76459;SDS011;65299;46.084;18.762;2023-04-16T05:50:30;3.27;;;2.10;;
76459;SDS011;65299;46.084;18.762;2023-04-16T05:53:31;6.63;;;2.80;;
76459;SDS011;65299;46.084;18.762;2023-04-16T05:56:31;4.95;;;2.63;;
76459;SDS011;65299;46.084;18.762;2023-04-16T05:59:31;7.53;;;3.33;;
76459;SDS011;65299;46.084;18.762;2023-04-16T06:02:32;4.70;;;2.80;;
76459;SDS011;65299;46.084;18.762;2023-04-16T06:05:32;12.80;;;7.57;;
76459;SDS011;65299;46.084;18.762;2023-04-16T06:08:33;7.45;;;3.90;;
76459;SDS011;65299;46.084;18.762;2023-04-16T06:11:33;6.17;;;2.70;;
76459;SDS011;65299;46.084;18.762;2023-04-16T06:14:33;5.40;;;2.40;;
76459;SDS011;65299;46.084;18.762;2023-04-16T06:17:34;6.15;;;3.20;;
76459;SDS011;65299;46.084;18.762;2023-04-16T06:20:35;7.67;;;3.37;;
76459;SDS011;65299;46.084;18.762;2023-04-16T06:23:35;5.73;;;2.57;;
76459;SDS011;65299;46.084;18.762;2023-04-16T06:26:36;6.20;;;3.60;;
76459;SDS011;65299;46.084;18.762;2023-04-16T06:29:36;6.63;;;3.77;;
76459;SDS011;65299;46.084;18.762;2023-04-16T06:32:36;9.20;;;3.57;;
76459;SDS011;65299;46.084;18.762;2023-04-16T06:35:37;7.95;;;3.58;;
76459;SDS011;65299;46.084;18.762;2023-04-16T06:38:37;6.53;;;3.90;;
76459;SDS011;65299;46.084;18.762;2023-04-16T06:41:38;8.30;;;4.40;;
76459;SDS011;65299;46.084;18.762;2023-04-16T06:44:38;8.13;;;4.20;;
76459;SDS011;65299;46.084;18.762;2023-04-16T06:47:39;9.30;;;4.57;;
76459;SDS011;65299;46.084;18.762;2023-04-16T06:50:39;9.93;;;5.57;;
76459;SDS011;65299;46.084;18.762;2023-04-16T06:53:40;11.23;;;5.50;;
76459;SDS011;65299;46.084;18.762;2023-04-16T06:56:41;12.35;;;5.35;;
76459;SDS011;65299;46.084;18.762;2023-04-16T06:59:41;7.50;;;4.30;;
76459;SDS011;65299;46.084;18.762;2023-04-16T07:02:42;8.20;;;4.63;;
76459;SDS011;65299;46.084;18.762;2023-04-16T07:05:42;11.27;;;5.97;;
76459;SDS011;65299;46.084;18.762;2023-04-16T07:08:43;11.20;;;5.50;;
76459;SDS011;65299;46.084;18.762;2023-04-16T07:11:43;9.33;;;5.57;;
76459;SDS011;65299;46.084;18.762;2023-04-16T07:14:43;11.40;;;6.60;;
76459;SDS011;65299;46.084;18.762;2023-04-16T07:17:45;11.13;;;6.10;;
76459;SDS011;65299;46.084;18.762;2023-04-16T07:20:45;10.55;;;6.82;;
76459;SDS011;65299;46.084;18.762;2023-04-16T07:23:46;12.57;;;7.47;;
76459;SDS011;65299;46.084;18.762;2023-04-16T07:26:47;13.82;;;6.93;;
76459;SDS011;65299;46.084;18.762;2023-04-16T07:29:47;13.37;;;7.60;;
76459;SDS011;65299;46.084;18.762;2023-04-16T07:32:49;15.85;;;8.63;;
76459;SDS011;65299;46.084;18.762;2023-04-16T07:35:50;12.53;;;6.80;;
76459;SDS011;65299;46.084;18.762;2023-04-16T07:38:50;13.40;;;8.50;;
76459;SDS011;65299;46.084;18.762;2023-04-16T07:41:51;17.00;;;9.93;;
76459;SDS011;65299;46.084;18.762;2023-04-16T07:44:51;14.70;;;8.63;;
76459;SDS011;65299;46.084;18.762;2023-04-16T07:47:52;19.40;;;11.77;;
76459;SDS011;65299;46.084;18.762;2023-04-16T07:50:52;19.23;;;11.33;;
76459;SDS011;65299;46.084;18.762;2023-04-16T07:53:53;17.63;;;10.30;;
76459;SDS011;65299;46.084;18.762;2023-04-16T07:56:53;17.70;;;9.47;;
76459;SDS011;65299;46.084;18.762;2023-04-16T07:59:53;19.27;;;11.37;;
76459;SDS011;65299;46.084;18.762;2023-04-16T08:02:54;18.50;;;11.68;;
76459;SDS011;65299;46.084;18.762;2023-04-16T08:05:54;17.17;;;9.70;;
76459;SDS011;65299;46.084;18.762;2023-04-16T08:08:55;18.17;;;11.23;;
76459;SDS011;65299;46.084;18.762;2023-04-16T08:11:55;27.48;;;12.90;;
76459;SDS011;65299;46.084;18.762;2023-04-16T08:14:56;23.43;;;12.90;;
76459;SDS011;65299;46.084;18.762;2023-04-16T08:17:56;22.37;;;12.93;;
76459;SDS011;65299;46.084;18.762;2023-04-16T08:20:57;19.83;;;12.38;;
76459;SDS011;65299;46.084;18.762;2023-04-16T08:23:57;16.73;;;10.80;;
76459;SDS011;65299;46.084;18.762;2023-04-16T08:26:58;18.47;;;12.27;;
76459;SDS011;65299;46.084;18.762;2023-04-16T08:29:58;18.23;;;11.33;;
76459;SDS011;65299;46.084;18.762;2023-04-16T08:32:59;15.98;;;10.43;;
76459;SDS011;65299;46.084;18.762;2023-04-16T08:35:59;14.03;;;9.57;;
76459;SDS011;65299;46.084;18.762;2023-04-16T08:39:00;17.00;;;11.40;;
76459;SDS011;65299;46.084;18.762;2023-04-16T08:42:01;16.08;;;10.38;;
76459;SDS011;65299;46.084;18.762;2023-04-16T08:45:07;16.13;;;10.47;;
76459;SDS011;65299;46.084;18.762;2023-04-16T08:48:13;13.68;;;9.25;;
76459;SDS011;65299;46.084;18.762;2023-04-16T08:51:14;14.23;;;8.68;;
76459;SDS011;65299;46.084;18.762;2023-04-16T08:54:19;14.05;;;9.88;;
76459;SDS011;65299;46.084;18.762;2023-04-16T08:57:34;12.25;;;8.85;;
76459;SDS011;65299;46.084;18.762;2023-04-16T09:00:39;13.87;;;8.70;;
76459;SDS011;65299;46.084;18.762;2023-04-16T09:03:43;13.15;;;8.82;;
76459;SDS011;65299;46.084;18.762;2023-04-16T09:06:45;15.25;;;8.77;;
76459;SDS011;65299;46.084;18.762;2023-04-16T09:09:47;13.45;;;9.07;;
76459;SDS011;65299;46.084;18.762;2023-04-16T09:12:50;12.35;;;7.95;;
76459;SDS011;65299;46.084;18.762;2023-04-16T09:15:53;9.83;;;6.77;;
76459;SDS011;65299;46.084;18.762;2023-04-16T09:18:55;11.18;;;6.93;;
76459;SDS011;65299;46.084;18.762;2023-04-16T09:21:56;9.40;;;6.23;;
76459;SDS011;65299;46.084;18.762;2023-04-16T09:24:56;11.10;;;7.57;;
76459;SDS011;65299;46.084;18.762;2023-04-16T09:27:57;10.93;;;5.83;;
76459;SDS011;65299;46.084;18.762;2023-04-16T09:31:07;7.03;;;5.73;;
76459;SDS011;65299;46.084;18.762;2023-04-16T09:34:12;7.28;;;5.32;;
76459;SDS011;65299;46.084;18.762;2023-04-16T09:37:16;7.87;;;5.83;;
76459;SDS011;65299;46.084;18.762;2023-04-16T09:40:17;6.05;;;5.38;;
76459;SDS011;65299;46.084;18.762;2023-04-16T09:43:25;7.15;;;5.63;;
76459;SDS011;65299;46.084;18.762;2023-04-16T09:49:39;6.67;;;5.70;;
76459;SDS011;65299;46.084;18.762;2023-04-16T09:52:42;7.07;;;5.93;;
76459;SDS011;65299;46.084;18.762;2023-04-16T09:55:44;6.35;;;5.20;;
76459;SDS011;65299;46.084;18.762;2023-04-16T09:58:45;7.07;;;5.75;;
76459;SDS011;65299;46.084;18.762;2023-04-16T10:01:46;6.37;;;5.27;;
76459;SDS011;65299;46.084;18.762;2023-04-16T10:04:49;7.00;;;5.70;;
76459;SDS011;65299;46.084;18.762;2023-04-16T10:07:50;6.37;;;5.20;;
76459;SDS011;65299;46.084;18.762;2023-04-16T10:10:51;6.00;;;5.40;;
76459;SDS011;65299;46.084;18.762;2023-04-16T10:13:53;7.05;;;5.78;;
76459;SDS011;65299;46.084;18.762;2023-04-16T10:16:57;5.97;;;4.80;;
76459;SDS011;65299;46.084;18.762;2023-04-16T10:19:57;9.95;;;5.53;;
76459;SDS011;65299;46.084;18.762;2023-04-16T10:23:00;8.25;;;5.60;;
76459;SDS011;65299;46.084;18.762;2023-04-16T10:26:01;10.60;;;6.30;;
76459;SDS011;65299;46.084;18.762;2023-04-16T10:29:01;11.33;;;7.03;;
76459;SDS011;65299;46.084;18.762;2023-04-16T10:32:03;6.90;;;5.82;;
76459;SDS011;65299;46.084;18.762;2023-04-16T10:35:05;6.70;;;5.50;;
76459;SDS011;65299;46.084;18.762;2023-04-16T10:38:23;7.70;;;5.78;;
76459;SDS011;65299;46.084;18.762;2023-04-16T10:41:24;8.25;;;5.32;;
76459;SDS011;65299;46.084;18.762;2023-04-16T10:44:25;6.53;;;5.32;;
76459;SDS011;65299;46.084;18.762;2023-04-16T10:47:31;6.87;;;5.70;;
76459;SDS011;65299;46.084;18.762;2023-04-16T10:50:34;7.22;;;5.70;;
76459;SDS011;65299;46.084;18.762;2023-04-16T10:53:36;6.63;;;5.27;;
76459;SDS011;65299;46.084;18.762;2023-04-16T10:56:36;6.45;;;5.22;;
76459;SDS011;65299;46.084;18.762;2023-04-16T10:59:37;5.53;;;4.80;;
76459;SDS011;65299;46.084;18.762;2023-04-16T11:02:40;6.15;;;5.05;;
76459;SDS011;65299;46.084;18.762;2023-04-16T11:05:44;6.30;;;4.50;;
76459;SDS011;65299;46.084;18.762;2023-04-16T11:08:49;11.15;;;6.63;;
76459;SDS011;65299;46.084;18.762;2023-04-16T11:11:50;6.45;;;5.75;;
76459;SDS011;65299;46.084;18.762;2023-04-16T11:14:51;7.90;;;4.53;;
76459;SDS011;65299;46.084;18.762;2023-04-16T11:18:13;6.47;;;4.60;;
76459;SDS011;65299;46.084;18.762;2023-04-16T11:21:18;8.85;;;6.10;;
76459;SDS011;65299;46.084;18.762;2023-04-16T11:24:19;6.65;;;5.53;;
76459;SDS011;65299;46.084;18.762;2023-04-16T11:27:19;6.77;;;6.07;;
76459;SDS011;65299;46.084;18.762;2023-04-16T11:30:33;8.30;;;6.93;;
76459;SDS011;65299;46.084;18.762;2023-04-16T11:33:34;8.65;;;7.15;;
76459;SDS011;65299;46.084;18.762;2023-04-16T11:36:46;7.07;;;6.30;;
76459;SDS011;65299;46.084;18.762;2023-04-16T11:39:49;10.00;;;7.45;;
76459;SDS011;65299;46.084;18.762;2023-04-16T11:42:51;8.50;;;7.30;;
76459;SDS011;65299;46.084;18.762;2023-04-16T11:48:59;6.37;;;5.47;;
76459;SDS011;65299;46.084;18.762;2023-04-16T11:52:00;8.07;;;6.65;;
76459;SDS011;65299;46.084;18.762;2023-04-16T11:55:01;8.27;;;7.10;;
76459;SDS011;65299;46.084;18.762;2023-04-16T11:58:11;8.88;;;7.97;;
76459;SDS011;65299;46.084;18.762;2023-04-16T12:01:12;9.30;;;7.25;;
76459;SDS011;65299;46.084;18.762;2023-04-16T12:04:21;8.13;;;7.10;;
76459;SDS011;65299;46.084;18.762;2023-04-16T12:07:25;9.05;;;7.47;;
76459;SDS011;65299;46.084;18.762;2023-04-16T12:10:26;11.20;;;7.28;;
76459;SDS011;65299;46.084;18.762;2023-04-16T12:13:27;8.80;;;7.50;;
76459;SDS011;65299;46.084;18.762;2023-04-16T12:16:27;12.67;;;8.90;;
76459;SDS011;65299;46.084;18.762;2023-04-16T12:19:28;11.60;;;8.33;;
76459;SDS011;65299;46.084;18.762;2023-04-16T12:22:29;10.00;;;8.60;;
76459;SDS011;65299;46.084;18.762;2023-04-16T12:25:31;8.50;;;6.88;;
76459;SDS011;65299;46.084;18.762;2023-04-16T12:28:33;7.47;;;6.60;;
76459;SDS011;65299;46.084;18.762;2023-04-16T12:31:36;7.28;;;5.93;;
76459;SDS011;65299;46.084;18.762;2023-04-16T12:34:48;7.10;;;5.00;;
76459;SDS011;65299;46.084;18.762;2023-04-16T12:37:50;7.18;;;5.20;;
76459;SDS011;65299;46.084;18.762;2023-04-16T12:40:50;6.33;;;5.00;;
76459;SDS011;65299;46.084;18.762;2023-04-16T12:43:51;6.32;;;4.28;;
76459;SDS011;65299;46.084;18.762;2023-04-16T12:47:01;7.72;;;4.07;;
76459;SDS011;65299;46.084;18.762;2023-04-16T12:50:01;5.13;;;3.67;;
76459;SDS011;65299;46.084;18.762;2023-04-16T12:53:01;4.03;;;3.63;;
76459;SDS011;65299;46.084;18.762;2023-04-16T12:56:02;5.40;;;4.10;;
76459;SDS011;65299;46.084;18.762;2023-04-16T12:59:03;5.57;;;4.30;;
76459;SDS011;65299;46.084;18.762;2023-04-16T13:02:03;14.32;;;8.02;;
76459;SDS011;65299;46.084;18.762;2023-04-16T13:05:04;18.00;;;9.73;;
76459;SDS011;65299;46.084;18.762;2023-04-16T13:08:05;16.90;;;8.48;;
76459;SDS011;65299;46.084;18.762;2023-04-16T13:11:06;18.33;;;8.63;;
76459;SDS011;65299;46.084;18.762;2023-04-16T13:14:07;30.58;;;14.23;;
76459;SDS011;65299;46.084;18.762;2023-04-16T13:17:07;18.57;;;8.80;;
76459;SDS011;65299;46.084;18.762;2023-04-16T13:20:08;12.40;;;6.93;;
76459;SDS011;65299;46.084;18.762;2023-04-16T13:23:09;15.18;;;8.15;;
76459;SDS011;65299;46.084;18.762;2023-04-16T13:26:09;7.20;;;5.30;;
76459;SDS011;65299;46.084;18.762;2023-04-16T13:29:11;5.70;;;4.30;;
76459;SDS011;65299;46.084;18.762;2023-04-16T13:32:12;6.13;;;4.40;;
76459;SDS011;65299;46.084;18.762;2023-04-16T13:35:13;7.37;;;5.07;;
76459;SDS011;65299;46.084;18.762;2023-04-16T13:38:14;9.18;;;5.70;;
76459;SDS011;65299;46.084;18.762;2023-04-16T13:41:14;7.03;;;4.53;;
76459;SDS011;65299;46.084;18.762;2023-04-16T13:44:15;10.03;;;5.50;;
76459;SDS011;65299;46.084;18.762;2023-04-16T13:47:15;4.55;;;2.85;;
76459;SDS011;65299;46.084;18.762;2023-04-16T13:50:16;6.20;;;4.10;;
76459;SDS011;65299;46.084;18.762;2023-04-16T13:53:16;3.93;;;2.43;;
76459;SDS011;65299;46.084;18.762;2023-04-16T13:56:17;7.27;;;2.90;;
76459;SDS011;65299;46.084;18.762;2023-04-16T13:59:17;3.63;;;3.13;;
76459;SDS011;65299;46.084;18.762;2023-04-16T14:02:18;5.73;;;3.80;;
76459;SDS011;65299;46.084;18.762;2023-04-16T14:05:19;4.68;;;3.60;;
76459;SDS011;65299;46.084;18.762;2023-04-16T14:08:19;5.40;;;3.50;;
76459;SDS011;65299;46.084;18.762;2023-04-16T14:11:20;4.57;;;3.60;;
76459;SDS011;65299;46.084;18.762;2023-04-16T14:14:21;6.22;;;4.70;;
76459;SDS011;65299;46.084;18.762;2023-04-16T14:17:21;8.57;;;4.50;;
76459;SDS011;65299;46.084;18.762;2023-04-16T14:20:22;5.70;;;3.00;;
76459;SDS011;65299;46.084;18.762;2023-04-16T14:23:22;3.47;;;2.50;;
76459;SDS011;65299;46.084;18.762;2023-04-16T14:26:23;2.90;;;1.97;;
76459;SDS011;65299;46.084;18.762;2023-04-16T14:29:23;4.95;;;2.65;;
76459;SDS011;65299;46.084;18.762;2023-04-16T14:32:24;3.67;;;2.23;;
76459;SDS011;65299;46.084;18.762;2023-04-16T14:35:25;4.20;;;3.17;;
76459;SDS011;65299;46.084;18.762;2023-04-16T14:38:26;6.97;;;2.80;;
76459;SDS011;65299;46.084;18.762;2023-04-16T14:41:26;4.93;;;2.80;;
76459;SDS011;65299;46.084;18.762;2023-04-16T14:44:27;5.63;;;3.08;;
76459;SDS011;65299;46.084;18.762;2023-04-16T14:47:27;5.80;;;3.33;;
76459;SDS011;65299;46.084;18.762;2023-04-16T14:50:27;3.10;;;2.23;;
76459;SDS011;65299;46.084;18.762;2023-04-16T14:53:28;3.70;;;2.10;;
76459;SDS011;65299;46.084;18.762;2023-04-16T14:56:28;2.97;;;1.90;;
76459;SDS011;65299;46.084;18.762;2023-04-16T14:59:29;7.17;;;2.40;;
76459;SDS011;65299;46.084;18.762;2023-04-16T15:02:30;4.85;;;2.72;;
76459;SDS011;65299;46.084;18.762;2023-04-16T15:05:30;6.03;;;4.20;;
76459;SDS011;65299;46.084;18.762;2023-04-16T15:08:31;9.67;;;5.43;;
76459;SDS011;65299;46.084;18.762;2023-04-16T15:11:31;7.80;;;3.20;;
76459;SDS011;65299;46.084;18.762;2023-04-16T15:14:32;3.83;;;2.75;;
76459;SDS011;65299;46.084;18.762;2023-04-16T15:17:32;6.13;;;2.80;;
76459;SDS011;65299;46.084;18.762;2023-04-16T15:20:33;3.60;;;2.23;;
76459;SDS011;65299;46.084;18.762;2023-04-16T15:23:33;5.38;;;2.30;;
76459;SDS011;65299;46.084;18.762;2023-04-16T15:26:34;5.43;;;3.33;;
76459;SDS011;65299;46.084;18.762;2023-04-16T15:29:34;5.30;;;3.13;;
76459;SDS011;65299;46.084;18.762;2023-04-16T15:32:35;4.85;;;3.50;;
76459;SDS011;65299;46.084;18.762;2023-04-16T15:35:35;5.37;;;3.70;;
76459;SDS011;65299;46.084;18.762;2023-04-16T15:38:37;6.88;;;3.55;;
76459;SDS011;65299;46.084;18.762;2023-04-16T15:41:38;5.70;;;3.80;;
76459;SDS011;65299;46.084;18.762;2023-04-16T15:44:38;6.70;;;4.50;;
76459;SDS011;65299;46.084;18.762;2023-04-16T15:47:39;4.85;;;3.70;;
76459;SDS011;65299;46.084;18.762;2023-04-16T15:50:39;8.07;;;4.23;;
76459;SDS011;65299;46.084;18.762;2023-04-16T15:53:40;7.03;;;4.20;;
76459;SDS011;65299;46.084;18.762;2023-04-16T15:56:41;14.60;;;8.52;;
76459;SDS011;65299;46.084;18.762;2023-04-16T15:59:41;5.50;;;4.10;;
76459;SDS011;65299;46.084;18.762;2023-04-16T16:02:42;6.57;;;4.00;;
76459;SDS011;65299;46.084;18.762;2023-04-16T16:05:46;10.23;;;5.63;;
76459;SDS011;65299;46.084;18.762;2023-04-16T16:08:47;6.93;;;4.50;;
76459;SDS011;65299;46.084;18.762;2023-04-16T16:11:49;7.63;;;3.85;;
76459;SDS011;65299;46.084;18.762;2023-04-16T16:14:49;7.80;;;5.00;;
76459;SDS011;65299;46.084;18.762;2023-04-16T16:17:50;7.93;;;4.07;;
76459;SDS011;65299;46.084;18.762;2023-04-16T16:20:54;6.35;;;4.03;;
76459;SDS011;65299;46.084;18.762;2023-04-16T16:23:56;5.78;;;4.10;;
76459;SDS011;65299;46.084;18.762;2023-04-16T16:26:57;4.53;;;3.67;;
76459;SDS011;65299;46.084;18.762;2023-04-16T16:29:57;6.43;;;3.97;;
76459;SDS011;65299;46.084;18.762;2023-04-16T16:32:59;7.93;;;4.95;;
76459;SDS011;65299;46.084;18.762;2023-04-16T16:36:00;9.10;;;5.10;;
76459;SDS011;65299;46.084;18.762;2023-04-16T16:39:01;11.07;;;4.50;;
76459;SDS011;65299;46.084;18.762;2023-04-16T16:42:02;14.30;;;8.52;;
76459;SDS011;65299;46.084;18.762;2023-04-16T16:45:03;9.90;;;5.43;;
76459;SDS011;65299;46.084;18.762;2023-04-16T16:48:05;10.13;;;5.72;;
76459;SDS011;65299;46.084;18.762;2023-04-16T16:51:07;4.43;;;3.10;;
76459;SDS011;65299;46.084;18.762;2023-04-16T16:54:08;9.10;;;6.35;;
76459;SDS011;65299;46.084;18.762;2023-04-16T16:57:10;5.37;;;2.83;;
76459;SDS011;65299;46.084;18.762;2023-04-16T17:00:11;8.00;;;2.83;;
76459;SDS011;65299;46.084;18.762;2023-04-16T17:03:14;8.45;;;3.70;;
76459;SDS011;65299;46.084;18.762;2023-04-16T17:06:14;4.53;;;3.07;;
76459;SDS011;65299;46.084;18.762;2023-04-16T17:09:15;4.05;;;2.70;;
76459;SDS011;65299;46.084;18.762;2023-04-16T17:12:15;11.13;;;5.17;;
76459;SDS011;65299;46.084;18.762;2023-04-16T17:15:16;10.03;;;5.40;;
76459;SDS011;65299;46.084;18.762;2023-04-16T17:18:16;13.15;;;6.78;;
76459;SDS011;65299;46.084;18.762;2023-04-16T17:21:17;15.87;;;9.30;;
76459;SDS011;65299;46.084;18.762;2023-04-16T17:24:17;12.15;;;8.10;;
76459;SDS011;65299;46.084;18.762;2023-04-16T17:27:18;10.53;;;7.77;;
76459;SDS011;65299;46.084;18.762;2023-04-16T17:30:18;9.33;;;7.03;;
76459;SDS011;65299;46.084;18.762;2023-04-16T17:33:19;9.20;;;6.30;;
76459;SDS011;65299;46.084;18.762;2023-04-16T17:36:20;12.03;;;6.53;;
76459;SDS011;65299;46.084;18.762;2023-04-16T17:39:21;9.13;;;6.35;;
76459;SDS011;65299;46.084;18.762;2023-04-16T17:42:22;10.93;;;7.10;;
76459;SDS011;65299;46.084;18.762;2023-04-16T17:45:23;8.60;;;6.25;;
76459;SDS011;65299;46.084;18.762;2023-04-16T17:48:23;11.07;;;7.10;;
76459;SDS011;65299;46.084;18.762;2023-04-16T17:51:24;13.38;;;8.10;;
76459;SDS011;65299;46.084;18.762;2023-04-16T17:54:26;12.90;;;8.37;;